Terminal Aerodrome Forecast
Issued by NWS

Current Version | Previous Version | Text Only | Print | Product List | Glossary Off
Versions: 1 2 3 4 5 6 7 8 9 10 11 12 13 14 15 16

844
FTUS41 KPBZ 210524
TAFHLG
TAF
KHLG 210524Z 2106/2206 20007KT P6SM SCT250 WS020/22035KT
     FM220200 23008KT P6SM BKN090
     FM220300 24008KT P6SM VCSH BKN040=

USA.gov is the U.S. government's official web portal to all federal, state and local government web resources and services.